sensor_id;sensor_type;location;lat;lon;timestamp;pressure;altitude;pressure_sealevel;temperature;humidity
46846;BME280;33947;46.804;134.252;2024-03-02T00:00:03;99937.47;;;-11.06;54.69
46846;BME280;33947;46.804;134.252;2024-03-02T00:03:17;99941.75;;;-10.87;54.47
46846;BME280;33947;46.804;134.252;2024-03-02T00:06:24;99947.28;;;-11.89;54.35
46846;BME280;33947;46.804;134.252;2024-03-02T00:09:31;99944.66;;;-11.73;56.78
46846;BME280;33947;46.804;134.252;2024-03-02T00:12:39;99941.09;;;-11.58;57.31
46846;BME280;33947;46.804;134.252;2024-03-02T00:15:51;99947.53;;;-10.34;56.03
46846;BME280;33947;46.804;134.252;2024-03-02T00:19:01;99946.78;;;-9.90;54.97
46846;BME280;33947;46.804;134.252;2024-03-02T00:22:10;99955.81;;;-10.21;51.63
46846;BME280;33947;46.804;134.252;2024-03-02T00:25:18;99950.78;;;-10.18;52.62
46846;BME280;33947;46.804;134.252;2024-03-02T00:28:27;99958.25;;;-10.44;51.03
46846;BME280;33947;46.804;134.252;2024-03-02T00:31:40;99954.06;;;-10.22;51.92
46846;BME280;33947;46.804;134.252;2024-03-02T00:34:47;99960.31;;;-9.75;53.77
46846;BME280;33947;46.804;134.252;2024-03-02T00:37:55;99962.28;;;-9.69;50.84
46846;BME280;33947;46.804;134.252;2024-03-02T00:41:05;99969.25;;;-9.66;51.90
46846;BME280;33947;46.804;134.252;2024-03-02T00:44:13;99959.28;;;-9.99;50.04
46846;BME280;33947;46.804;134.252;2024-03-02T00:47:24;99972.69;;;-9.87;50.62
46846;BME280;33947;46.804;134.252;2024-03-02T00:50:31;99945.00;;;-9.50;50.98
46846;BME280;33947;46.804;134.252;2024-03-02T00:53:38;99969.38;;;-9.19;51.72
46846;BME280;33947;46.804;134.252;2024-03-02T00:56:45;99972.81;;;-9.84;49.18
46846;BME280;33947;46.804;134.252;2024-03-02T00:59:52;99973.13;;;-9.76;49.95
46846;BME280;33947;46.804;134.252;2024-03-02T01:03:01;99927.47;;;-10.42;51.53
46846;BME280;33947;46.804;134.252;2024-03-02T01:06:09;99971.06;;;-9.20;50.73
46846;BME280;33947;46.804;134.252;2024-03-02T01:09:16;99980.19;;;-9.28;50.11
46846;BME280;33947;46.804;134.252;2024-03-02T01:12:23;99973.38;;;-9.49;50.58
46846;BME280;33947;46.804;134.252;2024-03-02T01:15:30;99982.59;;;-9.75;50.86
46846;BME280;33947;46.804;134.252;2024-03-02T01:18:40;99984.44;;;-9.07;50.75
46846;BME280;33947;46.804;134.252;2024-03-02T01:21:47;99985.16;;;-8.89;49.03
46846;BME280;33947;46.804;134.252;2024-03-02T01:24:55;99977.44;;;-9.33;48.89
46846;BME280;33947;46.804;134.252;2024-03-02T01:28:01;99981.41;;;-9.62;51.65
46846;BME280;33947;46.804;134.252;2024-03-02T01:31:09;99941.47;;;-9.74;49.51
46846;BME280;33947;46.804;134.252;2024-03-02T01:34:18;99958.38;;;-9.59;48.53
46846;BME280;33947;46.804;134.252;2024-03-02T01:37:26;99989.00;;;-8.77;50.26
46846;BME280;33947;46.804;134.252;2024-03-02T01:40:34;99987.97;;;-8.60;48.26
46846;BME280;33947;46.804;134.252;2024-03-02T01:43:41;99993.41;;;-8.52;48.65
46846;BME280;33947;46.804;134.252;2024-03-02T01:46:48;99983.78;;;-9.46;48.73
46846;BME280;33947;46.804;134.252;2024-03-02T01:49:57;99983.47;;;-7.92;49.69
46846;BME280;33947;46.804;134.252;2024-03-02T01:53:06;99989.13;;;-7.78;46.27
46846;BME280;33947;46.804;134.252;2024-03-02T01:56:15;99980.41;;;-8.31;48.26
46846;BME280;33947;46.804;134.252;2024-03-02T01:59:23;99983.03;;;-8.05;47.42
46846;BME280;33947;46.804;134.252;2024-03-02T02:02:30;99940.06;;;-8.29;47.54
46846;BME280;33947;46.804;134.252;2024-03-02T02:05:39;99992.97;;;-8.40;49.20
46846;BME280;33947;46.804;134.252;2024-03-02T02:08:48;99975.72;;;-7.66;46.52
46846;BME280;33947;46.804;134.252;2024-03-02T02:11:58;99980.00;;;-6.56;44.75
46846;BME280;33947;46.804;134.252;2024-03-02T02:15:22;99963.28;;;-6.67;44.82
46846;BME280;33947;46.804;134.252;2024-03-02T02:18:29;99991.50;;;-6.75;45.39
46846;BME280;33947;46.804;134.252;2024-03-02T02:21:38;99975.59;;;-7.71;48.17
46846;BME280;33947;46.804;134.252;2024-03-02T02:24:48;99983.81;;;-7.02;47.53
46846;BME280;33947;46.804;134.252;2024-03-02T02:27:58;99975.91;;;-5.85;45.55
46846;BME280;33947;46.804;134.252;2024-03-02T02:31:05;99974.84;;;-5.58;45.43
46846;BME280;33947;46.804;134.252;2024-03-02T02:34:14;99977.41;;;-6.56;46.53
46846;BME280;33947;46.804;134.252;2024-03-02T02:37:23;99978.66;;;-7.30;47.66
46846;BME280;33947;46.804;134.252;2024-03-02T02:40:30;99967.19;;;-5.53;47.72
46846;BME280;33947;46.804;134.252;2024-03-02T02:43:37;99972.13;;;-6.88;45.84
46846;BME280;33947;46.804;134.252;2024-03-02T02:46:45;99973.69;;;-6.35;47.20
46846;BME280;33947;46.804;134.252;2024-03-02T02:49:53;99976.16;;;-7.27;46.87
46846;BME280;33947;46.804;134.252;2024-03-02T02:53:03;99974.84;;;-6.85;48.04
46846;BME280;33947;46.804;134.252;2024-03-02T02:56:10;99966.03;;;-6.90;48.47
46846;BME280;33947;46.804;134.252;2024-03-02T02:59:18;99961.94;;;-7.14;47.08
46846;BME280;33947;46.804;134.252;2024-03-02T03:02:25;99942.84;;;-7.17;48.32
46846;BME280;33947;46.804;134.252;2024-03-02T03:05:35;99962.19;;;-4.72;45.71
46846;BME280;33947;46.804;134.252;2024-03-02T03:08:43;99965.66;;;-5.45;45.42
46846;BME280;33947;46.804;134.252;2024-03-02T03:11:50;99968.44;;;-5.00;44.04
46846;BME280;33947;46.804;134.252;2024-03-02T03:14:58;99962.69;;;-5.94;44.59
46846;BME280;33947;46.804;134.252;2024-03-02T03:18:06;99961.16;;;-5.87;45.14
46846;BME280;33947;46.804;134.252;2024-03-02T03:21:15;99959.84;;;-5.36;45.25
46846;BME280;33947;46.804;134.252;2024-03-02T03:24:23;99963.41;;;-5.32;45.65
46846;BME280;33947;46.804;134.252;2024-03-02T03:27:31;99957.69;;;-4.36;42.34
46846;BME280;33947;46.804;134.252;2024-03-02T03:30:38;99953.25;;;-4.43;45.46
46846;BME280;33947;46.804;134.252;2024-03-02T03:33:45;99955.78;;;-4.45;44.63
46846;BME280;33947;46.804;134.252;2024-03-02T03:36:54;99949.84;;;-4.41;42.95
46846;BME280;33947;46.804;134.252;2024-03-02T03:40:04;99954.25;;;-4.37;43.14
46846;BME280;33947;46.804;134.252;2024-03-02T03:43:15;99945.00;;;-5.77;43.26
46846;BME280;33947;46.804;134.252;2024-03-02T03:46:23;99939.38;;;-5.94;46.04
46846;BME280;33947;46.804;134.252;2024-03-02T03:49:30;99943.41;;;-4.98;46.05
46846;BME280;33947;46.804;134.252;2024-03-02T03:52:37;99939.50;;;-5.91;43.69
46846;BME280;33947;46.804;134.252;2024-03-02T03:55:45;99927.13;;;-6.65;45.76
46846;BME280;33947;46.804;134.252;2024-03-02T03:58:54;99926.41;;;-5.60;46.50
46846;BME280;33947;46.804;134.252;2024-03-02T04:02:01;99929.81;;;-4.00;42.08
46846;BME280;33947;46.804;134.252;2024-03-02T04:05:09;99908.81;;;-4.99;43.04
46846;BME280;33947;46.804;134.252;2024-03-02T04:08:16;99925.09;;;-5.06;43.56
46846;BME280;33947;46.804;134.252;2024-03-02T04:11:25;99915.97;;;-5.63;44.24
46846;BME280;33947;46.804;134.252;2024-03-02T04:14:35;99891.41;;;-5.80;43.39
46846;BME280;33947;46.804;134.252;2024-03-02T04:17:42;99902.59;;;-6.14;43.75
46846;BME280;33947;46.804;134.252;2024-03-02T04:20:49;99917.25;;;-5.46;44.47
46846;BME280;33947;46.804;134.252;2024-03-02T04:23:57;99922.59;;;-5.40;43.08
46846;BME280;33947;46.804;134.252;2024-03-02T04:27:07;99927.13;;;-5.31;43.71
46846;BME280;33947;46.804;134.252;2024-03-02T04:30:14;99926.16;;;-6.05;44.34
46846;BME280;33947;46.804;134.252;2024-03-02T04:33:22;99928.63;;;-5.02;43.44
46846;BME280;33947;46.804;134.252;2024-03-02T04:36:29;99927.94;;;-5.33;44.01
46846;BME280;33947;46.804;134.252;2024-03-02T04:39:36;99926.09;;;-5.38;42.51
46846;BME280;33947;46.804;134.252;2024-03-02T04:42:45;99922.28;;;-6.21;43.19
46846;BME280;33947;46.804;134.252;2024-03-02T04:45:52;99923.66;;;-5.31;44.19
46846;BME280;33947;46.804;134.252;2024-03-02T04:48:59;99923.56;;;-5.71;43.94
46846;BME280;33947;46.804;134.252;2024-03-02T04:52:07;99928.41;;;-6.17;43.11
46846;BME280;33947;46.804;134.252;2024-03-02T04:55:15;99932.72;;;-6.50;44.60
46846;BME280;33947;46.804;134.252;2024-03-02T04:58:55;99934.28;;;-5.57;44.09
46846;BME280;33947;46.804;134.252;2024-03-02T05:02:01;99944.75;;;-6.50;44.49
46846;BME280;33947;46.804;134.252;2024-03-02T05:05:09;99938.66;;;-6.53;45.66
46846;BME280;33947;46.804;134.252;2024-03-02T05:08:16;99940.03;;;-6.35;44.68
46846;BME280;33947;46.804;134.252;2024-03-02T05:11:23;99940.13;;;-6.32;45.50
46846;BME280;33947;46.804;134.252;2024-03-02T05:15:04;99947.06;;;-5.99;44.90
46846;BME280;33947;46.804;134.252;2024-03-02T05:18:12;99958.84;;;-6.10;45.09
46846;BME280;33947;46.804;134.252;2024-03-02T05:21:19;99949.78;;;-5.59;44.76
46846;BME280;33947;46.804;134.252;2024-03-02T05:24:27;99944.84;;;-6.17;43.50
46846;BME280;33947;46.804;134.252;2024-03-02T05:27:35;99954.09;;;-5.59;45.00
46846;BME280;33947;46.804;134.252;2024-03-02T05:30:44;99949.53;;;-5.68;44.75
46846;BME280;33947;46.804;134.252;2024-03-02T05:33:52;99953.00;;;-6.03;44.22
46846;BME280;33947;46.804;134.252;2024-03-02T05:37:01;99963.81;;;-5.51;43.25
46846;BME280;33947;46.804;134.252;2024-03-02T05:40:09;99944.06;;;-5.45;42.88
46846;BME280;33947;46.804;134.252;2024-03-02T05:43:16;99954.00;;;-5.27;42.17
46846;BME280;33947;46.804;134.252;2024-03-02T05:46:27;99957.56;;;-6.25;44.52
46846;BME280;33947;46.804;134.252;2024-03-02T05:49:33;99962.31;;;-5.41;43.40
46846;BME280;33947;46.804;134.252;2024-03-02T05:52:41;99962.28;;;-6.10;43.30
46846;BME280;33947;46.804;134.252;2024-03-02T05:55:49;99963.56;;;-5.61;43.25
46846;BME280;33947;46.804;134.252;2024-03-02T05:59:00;99965.97;;;-4.96;42.37
46846;BME280;33947;46.804;134.252;2024-03-02T06:02:19;99929.84;;;-5.26;41.88
46846;BME280;33947;46.804;134.252;2024-03-02T06:05:26;99941.03;;;-5.98;43.83
46846;BME280;33947;46.804;134.252;2024-03-02T06:08:33;99958.72;;;-5.81;44.58
46846;BME280;33947;46.804;134.252;2024-03-02T06:11:41;99973.16;;;-5.21;42.28
46846;BME280;33947;46.804;134.252;2024-03-02T06:14:48;99965.25;;;-5.96;42.80
46846;BME280;33947;46.804;134.252;2024-03-02T06:17:58;99942.28;;;-6.15;44.56
46846;BME280;33947;46.804;134.252;2024-03-02T06:21:05;99965.72;;;-5.43;42.34
46846;BME280;33947;46.804;134.252;2024-03-02T06:24:13;99962.91;;;-4.78;42.36
46846;BME280;33947;46.804;134.252;2024-03-02T06:27:21;99964.34;;;-5.29;42.77
46846;BME280;33947;46.804;134.252;2024-03-02T06:30:28;99960.94;;;-6.58;43.15
46846;BME280;33947;46.804;134.252;2024-03-02T06:33:37;99908.97;;;-7.25;44.15
46846;BME280;33947;46.804;134.252;2024-03-02T06:36:45;99958.69;;;-6.76;45.08
46846;BME280;33947;46.804;134.252;2024-03-02T06:39:52;99973.19;;;-5.89;44.03
46846;BME280;33947;46.804;134.252;2024-03-02T06:42:59;99979.59;;;-5.41;42.50
46846;BME280;33947;46.804;134.252;2024-03-02T06:46:07;99974.72;;;-5.96;41.21
46846;BME280;33947;46.804;134.252;2024-03-02T06:49:16;99980.28;;;-6.75;43.51
46846;BME280;33947;46.804;134.252;2024-03-02T06:52:24;99989.44;;;-6.87;44.46
46846;BME280;33947;46.804;134.252;2024-03-02T06:55:31;99988.16;;;-6.71;43.40
46846;BME280;33947;46.804;134.252;2024-03-02T06:58:38;100002.34;;;-6.58;43.24
46846;BME280;33947;46.804;134.252;2024-03-02T07:01:45;100002.31;;;-6.30;43.53
46846;BME280;33947;46.804;134.252;2024-03-02T07:04:54;99995.94;;;-6.11;43.71
46846;BME280;33947;46.804;134.252;2024-03-02T07:08:01;100010.59;;;-6.71;43.04
46846;BME280;33947;46.804;134.252;2024-03-02T07:11:10;100010.34;;;-6.50;44.42
46846;BME280;33947;46.804;134.252;2024-03-02T07:14:17;100010.69;;;-6.68;43.76
46846;BME280;33947;46.804;134.252;2024-03-02T07:17:25;99997.19;;;-6.58;43.91
46846;BME280;33947;46.804;134.252;2024-03-02T07:20:34;100007.06;;;-7.04;43.62
46846;BME280;33947;46.804;134.252;2024-03-02T07:23:41;100018.09;;;-7.35;43.97
46846;BME280;33947;46.804;134.252;2024-03-02T07:26:50;100024.97;;;-7.36;45.66
46846;BME280;33947;46.804;134.252;2024-03-02T07:29:57;100040.22;;;-7.44;44.86
46846;BME280;33947;46.804;134.252;2024-03-02T07:33:06;100034.13;;;-7.20;45.17
46846;BME280;33947;46.804;134.252;2024-03-02T07:36:16;100037.09;;;-7.85;44.89
46846;BME280;33947;46.804;134.252;2024-03-02T07:39:24;99987.63;;;-8.69;46.22
46846;BME280;33947;46.804;134.252;2024-03-02T07:42:31;100034.34;;;-9.05;46.08
46846;BME280;33947;46.804;134.252;2024-03-02T07:45:38;100030.72;;;-9.10;45.88
46846;BME280;33947;46.804;134.252;2024-03-02T07:48:46;100054.56;;;-9.15;47.00
46846;BME280;33947;46.804;134.252;2024-03-02T07:51:58;100058.97;;;-8.91;47.29
46846;BME280;33947;46.804;134.252;2024-03-02T07:55:05;100069.75;;;-8.57;45.85
46846;BME280;33947;46.804;134.252;2024-03-02T07:58:14;100068.72;;;-8.83;46.77
46846;BME280;33947;46.804;134.252;2024-03-02T08:01:23;100066.59;;;-9.15;46.45
46846;BME280;33947;46.804;134.252;2024-03-02T08:04:33;100070.00;;;-9.16;46.24
46846;BME280;33947;46.804;134.252;2024-03-02T08:07:44;100079.81;;;-9.50;46.35
46846;BME280;33947;46.804;134.252;2024-03-02T08:10:51;100086.69;;;-9.49;46.73
46846;BME280;33947;46.804;134.252;2024-03-02T08:14:03;100094.69;;;-9.64;48.03
46846;BME280;33947;46.804;134.252;2024-03-02T08:17:10;100094.88;;;-9.79;47.66
46846;BME280;33947;46.804;134.252;2024-03-02T08:20:17;100099.16;;;-9.99;48.20
46846;BME280;33947;46.804;134.252;2024-03-02T08:23:26;100107.31;;;-10.27;48.58
46846;BME280;33947;46.804;134.252;2024-03-02T08:26:34;100058.66;;;-10.61;49.05
46846;BME280;33947;46.804;134.252;2024-03-02T08:29:41;100102.00;;;-10.68;49.50
46846;BME280;33947;46.804;134.252;2024-03-02T08:32:49;100106.72;;;-11.12;50.64
46846;BME280;33947;46.804;134.252;2024-03-02T08:35:56;100121.44;;;-11.10;50.53
46846;BME280;33947;46.804;134.252;2024-03-02T08:39:04;100124.38;;;-11.02;50.78
46846;BME280;33947;46.804;134.252;2024-03-02T08:42:20;100124.25;;;-11.40;50.69
46846;BME280;33947;46.804;134.252;2024-03-02T08:45:27;100123.56;;;-11.54;51.23
46846;BME280;33947;46.804;134.252;2024-03-02T08:48:35;100097.97;;;-12.02;51.65
46846;BME280;33947;46.804;134.252;2024-03-02T08:51:42;100138.00;;;-11.89;51.43
46846;BME280;33947;46.804;134.252;2024-03-02T08:54:51;100142.75;;;-11.97;51.54
46846;BME280;33947;46.804;134.252;2024-03-02T08:57:58;100154.50;;;-12.00;51.62
46846;BME280;33947;46.804;134.252;2024-03-02T09:01:05;100151.63;;;-11.90;50.61
46846;BME280;33947;46.804;134.252;2024-03-02T09:04:12;100150.19;;;-11.85;50.74
46846;BME280;33947;46.804;134.252;2024-03-02T09:07:20;100164.72;;;-11.85;50.90
46846;BME280;33947;46.804;134.252;2024-03-02T09:10:29;100176.91;;;-11.98;50.37
46846;BME280;33947;46.804;134.252;2024-03-02T09:13:37;100175.22;;;-12.29;50.71
46846;BME280;33947;46.804;134.252;2024-03-02T09:16:45;100177.09;;;-12.41;51.16
46846;BME280;33947;46.804;134.252;2024-03-02T09:19:52;100163.50;;;-12.55;51.95
46846;BME280;33947;46.804;134.252;2024-03-02T09:22:59;100134.97;;;-13.08;52.31
46846;BME280;33947;46.804;134.252;2024-03-02T09:26:08;100202.78;;;-12.86;53.31
46846;BME280;33947;46.804;134.252;2024-03-02T09:29:18;100212.50;;;-12.81;52.14
46846;BME280;33947;46.804;134.252;2024-03-02T09:32:28;100218.97;;;-12.87;52.64
46846;BME280;33947;46.804;134.252;2024-03-02T09:35:37;100207.13;;;-12.85;52.58
46846;BME280;33947;46.804;134.252;2024-03-02T09:38:44;100221.88;;;-13.11;53.25
46846;BME280;33947;46.804;134.252;2024-03-02T09:41:56;100223.19;;;-13.18;53.93
46846;BME280;33947;46.804;134.252;2024-03-02T09:45:29;100219.41;;;-13.25;53.67
46846;BME280;33947;46.804;134.252;2024-03-02T09:48:44;100229.03;;;-13.20;54.03
46846;BME280;33947;46.804;134.252;2024-03-02T09:51:55;100232.13;;;-13.11;52.90
46846;BME280;33947;46.804;134.252;2024-03-02T09:55:07;100213.19;;;-13.28;52.86
46846;BME280;33947;46.804;134.252;2024-03-02T09:58:16;100229.88;;;-13.20;52.52
46846;BME280;33947;46.804;134.252;2024-03-02T10:01:25;100227.00;;;-13.11;51.77
46846;BME280;33947;46.804;134.252;2024-03-02T10:04:33;100237.06;;;-13.14;51.61
46846;BME280;33947;46.804;134.252;2024-03-02T10:07:44;;;;-13.17;
46846;BME280;33947;46.804;134.252;2024-03-02T10:11:02;100230.13;;;-13.30;51.86
46846;BME280;33947;46.804;134.252;2024-03-02T10:14:14;100125.91;;;-14.33;51.30
46846;BME280;33947;46.804;134.252;2024-03-02T10:17:22;100238.84;;;-13.70;51.16
46846;BME280;33947;46.804;134.252;2024-03-02T10:20:29;100244.28;;;-13.79;51.36
46846;BME280;33947;46.804;134.252;2024-03-02T10:23:38;100242.34;;;-13.83;51.36
46846;BME280;33947;46.804;134.252;2024-03-02T10:26:45;100250.28;;;-13.78;51.54
46846;BME280;33947;46.804;134.252;2024-03-02T10:29:54;100253.34;;;-13.98;51.85
46846;BME280;33947;46.804;134.252;2024-03-02T10:33:02;100246.19;;;-14.17;51.97
46846;BME280;33947;46.804;134.252;2024-03-02T10:36:10;100258.22;;;-14.29;52.31
46846;BME280;33947;46.804;134.252;2024-03-02T10:39:20;100251.63;;;-14.12;52.78
46846;BME280;33947;46.804;134.252;2024-03-02T10:42:29;100254.16;;;-14.12;52.20
46846;BME280;33947;46.804;134.252;2024-03-02T10:45:39;100231.94;;;-14.13;52.82
46846;BME280;33947;46.804;134.252;2024-03-02T10:48:46;100232.63;;;-14.16;53.01
46846;BME280;33947;46.804;134.252;2024-03-02T10:51:54;100260.34;;;-14.09;52.85
46846;BME280;33947;46.804;134.252;2024-03-02T10:55:02;100267.66;;;-14.42;53.25
46846;BME280;33947;46.804;134.252;2024-03-02T10:58:12;100264.91;;;-14.45;53.02
46846;BME280;33947;46.804;134.252;2024-03-02T11:01:23;100269.59;;;-14.24;52.50
46846;BME280;33947;46.804;134.252;2024-03-02T11:04:31;100261.25;;;-14.35;52.34
46846;BME280;33947;46.804;134.252;2024-03-02T11:07:40;100234.91;;;-14.34;52.30
46846;BME280;33947;46.804;134.252;2024-03-02T11:10:51;100243.34;;;-14.35;52.14
46846;BME280;33947;46.804;134.252;2024-03-02T11:14:00;100248.28;;;-14.78;53.52
46846;BME280;33947;46.804;134.252;2024-03-02T11:17:15;100243.94;;;-15.44;55.47
46846;BME280;33947;46.804;134.252;2024-03-02T11:20:23;100258.97;;;-15.48;56.02
46846;BME280;33947;46.804;134.252;2024-03-02T11:23:34;100256.91;;;-15.41;55.57
46846;BME280;33947;46.804;134.252;2024-03-02T11:26:42;100262.88;;;-15.53;55.56
46846;BME280;33947;46.804;134.252;2024-03-02T11:29:49;100260.97;;;-15.31;54.84
46846;BME280;33947;46.804;134.252;2024-03-02T11:32:59;100257.50;;;-15.45;54.83
46846;BME280;33947;46.804;134.252;2024-03-02T11:36:08;100262.25;;;-15.37;54.42
46846;BME280;33947;46.804;134.252;2024-03-02T11:39:16;100258.28;;;-15.46;54.96
46846;BME280;33947;46.804;134.252;2024-03-02T11:42:22;100268.38;;;-15.22;53.76
46846;BME280;33947;46.804;134.252;2024-03-02T11:45:30;100242.72;;;-15.37;53.47
46846;BME280;33947;46.804;134.252;2024-03-02T11:48:40;100272.28;;;-15.27;52.84
46846;BME280;33947;46.804;134.252;2024-03-02T11:52:00;100271.88;;;-15.33;53.08
46846;BME280;33947;46.804;134.252;2024-03-02T11:55:10;100271.56;;;-15.38;53.08
46846;BME280;33947;46.804;134.252;2024-03-02T11:58:18;100275.47;;;-15.43;52.97
46846;BME280;33947;46.804;134.252;2024-03-02T12:01:29;100279.47;;;-15.72;53.76
46846;BME280;33947;46.804;134.252;2024-03-02T12:04:38;100276.72;;;-15.62;53.24
46846;BME280;33947;46.804;134.252;2024-03-02T12:07:47;100280.50;;;-15.57;53.27
46846;BME280;33947;46.804;134.252;2024-03-02T12:10:58;100230.94;;;-15.86;53.13
46846;BME280;33947;46.804;134.252;2024-03-02T12:14:11;100278.59;;;-15.47;52.43
46846;BME280;33947;46.804;134.252;2024-03-02T12:17:19;100273.38;;;-15.74;52.77
46846;BME280;33947;46.804;134.252;2024-03-02T12:20:28;100255.03;;;-16.06;54.24
46846;BME280;33947;46.804;134.252;2024-03-02T12:23:42;100281.19;;;-15.96;54.13
46846;BME280;33947;46.804;134.252;2024-03-02T12:26:49;100272.41;;;-16.00;53.62
46846;BME280;33947;46.804;134.252;2024-03-02T12:29:56;100284.06;;;-16.16;53.93
46846;BME280;33947;46.804;134.252;2024-03-02T12:33:06;100284.50;;;-15.98;53.69
46846;BME280;33947;46.804;134.252;2024-03-02T12:36:18;100285.72;;;-16.04;53.36
46846;BME280;33947;46.804;134.252;2024-03-02T12:39:25;100288.59;;;-16.35;54.51
46846;BME280;33947;46.804;134.252;2024-03-02T12:42:35;100285.59;;;-16.77;57.33
46846;BME280;33947;46.804;134.252;2024-03-02T12:45:42;100283.59;;;-16.93;58.34
46846;BME280;33947;46.804;134.252;2024-03-02T12:48:49;100275.41;;;-16.53;56.37
46846;BME280;33947;46.804;134.252;2024-03-02T12:51:59;100296.56;;;-16.54;55.47
46846;BME280;33947;46.804;134.252;2024-03-02T12:55:08;100290.06;;;-16.39;54.18
46846;BME280;33947;46.804;134.252;2024-03-02T12:58:20;100297.16;;;-17.17;53.75
46846;BME280;33947;46.804;134.252;2024-03-02T13:01:27;100303.31;;;-17.47;56.27
46846;BME280;33947;46.804;134.252;2024-03-02T13:04:34;100300.81;;;-18.02;58.26
46846;BME280;33947;46.804;134.252;2024-03-02T13:07:42;100296.78;;;-18.10;57.62
46846;BME280;33947;46.804;134.252;2024-03-02T13:10:50;100302.50;;;-18.03;58.00
46846;BME280;33947;46.804;134.252;2024-03-02T13:13:57;100292.56;;;-17.99;58.10
46846;BME280;33947;46.804;134.252;2024-03-02T13:17:04;100281.47;;;-18.22;58.37
46846;BME280;33947;46.804;134.252;2024-03-02T13:20:10;100294.03;;;-17.69;57.25
46846;BME280;33947;46.804;134.252;2024-03-02T13:23:20;100302.44;;;-17.70;56.23
46846;BME280;33947;46.804;134.252;2024-03-02T13:26:27;100307.47;;;-17.92;55.68
46846;BME280;33947;46.804;134.252;2024-03-02T13:29:34;100310.13;;;-18.77;57.52
46846;BME280;33947;46.804;134.252;2024-03-02T13:32:41;100303.16;;;-18.79;58.58
46846;BME280;33947;46.804;134.252;2024-03-02T13:35:48;100314.44;;;-18.86;58.33
46846;BME280;33947;46.804;134.252;2024-03-02T13:38:57;100310.91;;;-18.88;59.22
46846;BME280;33947;46.804;134.252;2024-03-02T13:42:05;100314.69;;;-18.72;58.03
46846;BME280;33947;46.804;134.252;2024-03-02T13:45:13;100321.41;;;-18.94;57.85
46846;BME280;33947;46.804;134.252;2024-03-02T13:48:20;100307.38;;;-19.00;57.95
46846;BME280;33947;46.804;134.252;2024-03-02T13:51:27;100321.19;;;-19.17;58.41
46846;BME280;33947;46.804;134.252;2024-03-02T13:54:37;100316.50;;;-19.23;58.49
46846;BME280;33947;46.804;134.252;2024-03-02T13:57:44;100327.06;;;-19.58;59.55
46846;BME280;33947;46.804;134.252;2024-03-02T14:00:54;100302.31;;;-19.82;60.96
46846;BME280;33947;46.804;134.252;2024-03-02T14:04:02;100313.03;;;-19.55;58.41
46846;BME280;33947;46.804;134.252;2024-03-02T14:07:11;100323.38;;;-19.62;58.71
46846;BME280;33947;46.804;134.252;2024-03-02T14:10:20;100326.88;;;-19.30;58.18
46846;BME280;33947;46.804;134.252;2024-03-02T14:13:31;100318.47;;;-19.40;57.57
46846;BME280;33947;46.804;134.252;2024-03-02T14:16:42;100324.25;;;-19.72;57.94
46846;BME280;33947;46.804;134.252;2024-03-02T14:19:52;100325.75;;;-20.14;59.66
46846;BME280;33947;46.804;134.252;2024-03-02T14:23:01;100325.19;;;-19.51;58.09
46846;BME280;33947;46.804;134.252;2024-03-02T14:26:11;100327.00;;;-19.79;58.61
46846;BME280;33947;46.804;134.252;2024-03-02T14:29:20;100329.19;;;-19.63;58.30
46846;BME280;33947;46.804;134.252;2024-03-02T14:32:27;100319.72;;;-19.95;58.02
46846;BME280;33947;46.804;134.252;2024-03-02T14:35:34;100335.72;;;-19.86;58.46
46846;BME280;33947;46.804;134.252;2024-03-02T14:38:45;100334.81;;;-19.86;58.36
46846;BME280;33947;46.804;134.252;2024-03-02T14:41:55;100330.59;;;-20.07;58.32
46846;BME280;33947;46.804;134.252;2024-03-02T14:45:04;100329.91;;;-19.85;59.04
46846;BME280;33947;46.804;134.252;2024-03-02T14:48:11;100335.84;;;-20.24;59.51
46846;BME280;33947;46.804;134.252;2024-03-02T14:51:23;100332.84;;;-20.10;59.31
46846;BME280;33947;46.804;134.252;2024-03-02T14:54:30;100337.53;;;-20.33;59.70
46846;BME280;33947;46.804;134.252;2024-03-02T14:57:39;100340.06;;;-20.53;59.90
46846;BME280;33947;46.804;134.252;2024-03-02T15:00:46;100341.72;;;-20.53;59.69
46846;BME280;33947;46.804;134.252;2024-03-02T15:03:54;100346.72;;;-20.44;59.55
46846;BME280;33947;46.804;134.252;2024-03-02T15:07:02;100337.53;;;-20.72;61.67
46846;BME280;33947;46.804;134.252;2024-03-02T15:10:11;100338.78;;;-20.58;61.24
46846;BME280;33947;46.804;134.252;2024-03-02T15:13:19;100337.97;;;-20.67;61.95
46846;BME280;33947;46.804;134.252;2024-03-02T15:16:26;100335.50;;;-20.76;60.58
46846;BME280;33947;46.804;134.252;2024-03-02T15:19:34;100342.41;;;-20.45;59.96
46846;BME280;33947;46.804;134.252;2024-03-02T15:22:42;100338.38;;;-20.82;60.68
46846;BME280;33947;46.804;134.252;2024-03-02T15:25:50;100338.25;;;-21.11;62.36
46846;BME280;33947;46.804;134.252;2024-03-02T15:28:59;100345.81;;;-21.02;62.49
46846;BME280;33947;46.804;134.252;2024-03-02T15:32:06;100341.22;;;-21.06;61.81
46846;BME280;33947;46.804;134.252;2024-03-02T15:35:13;100343.75;;;-21.06;63.17
46846;BME280;33947;46.804;134.252;2024-03-02T15:38:20;100344.25;;;-20.91;63.76
46846;BME280;33947;46.804;134.252;2024-03-02T15:41:37;100339.72;;;-21.04;62.08
46846;BME280;33947;46.804;134.252;2024-03-02T15:44:47;100342.41;;;-20.84;61.49
46846;BME280;33947;46.804;134.252;2024-03-02T15:47:54;100341.25;;;-20.68;60.11
46846;BME280;33947;46.804;134.252;2024-03-02T15:51:01;100345.69;;;-20.66;59.72
46846;BME280;33947;46.804;134.252;2024-03-02T15:54:10;100352.38;;;-20.85;58.94
46846;BME280;33947;46.804;134.252;2024-03-02T15:57:21;100344.31;;;-20.81;58.06
46846;BME280;33947;46.804;134.252;2024-03-02T16:00:29;100342.78;;;-21.17;58.68